Time;durP1;ratioP1;P1;durP2;ratioP2;P2;SDS_P1;SDS_P2;PMS_P1;PMS_P2;Temp;Humidity;BMP_temperature;BMP_pressure;BME280_temperature;BME280_humidity;BME280_pressure;Samples;Min_cycle;Max_cycle;Signal;HPM_P1;HPM_P2
2023/06/07 00:02:23;;;;;;;14.85;7.45;;;;;;;13.66;69.32;101844.06;5053129;28;20476;-83
2023/06/07 00:04:48;;;;;;;12.23;7.32;;;;;;;13.64;69.61;101846.97;5052459;28;20033;-83
2023/06/07 00:07:14;;;;;;;13.55;7.63;;;;;;;13.61;69.49;101852.75;5051430;28;20349;-83
2023/06/07 00:09:40;;;;;;;12.48;7.90;;;;;;;13.48;69.98;101848.88;5053747;28;20082;-83
2023/06/07 00:12:14;;;;;;;14.52;7.82;;;;;;;13.47;70.12;101846.38;5052550;28;20021;-82
2023/06/07 00:14:40;;;;;;;10.55;6.90;;;;;;;13.49;69.73;101855.97;5051259;28;20058;-83
2023/06/07 00:17:05;;;;;;;12.85;7.68;;;;;;;13.47;69.99;101847.22;5052786;28;20064;-83
2023/06/07 00:19:30;;;;;;;11.13;7.50;;;;;;;13.52;70.09;101849.31;5051978;28;20035;-83
2023/06/07 00:21:57;;;;;;;10.77;7.28;;;;;;;13.53;69.68;101850.19;5052421;28;20021;-83
2023/06/07 00:24:22;;;;;;;14.25;7.68;;;;;;;13.46;70.20;101842.81;5053673;28;20132;-83
2023/06/07 00:26:48;;;;;;;12.80;7.32;;;;;;;13.46;70.53;101842.00;5054381;28;20123;-83
2023/06/07 00:29:16;;;;;;;14.90;7.88;;;;;;;13.37;71.05;101845.81;5051510;28;20082;-83
2023/06/07 00:31:41;;;;;;;13.52;7.85;;;;;;;13.30;71.45;101846.59;5052502;28;20025;-83
2023/06/07 00:34:07;;;;;;;13.38;7.53;;;;;;;13.30;72.15;101851.16;5051437;28;20039;-83
2023/06/07 00:36:33;;;;;;;11.25;7.80;;;;;;;13.27;72.14;101848.81;5051946;28;20645;-83
2023/06/07 00:39:02;;;;;;;13.50;7.78;;;;;;;13.27;72.48;101846.09;5053291;28;20025;-83
2023/06/07 00:41:28;;;;;;;11.63;7.70;;;;;;;13.21;72.65;101846.91;5051360;28;20064;-83
2023/06/07 00:43:53;;;;;;;10.32;7.35;;;;;;;13.21;72.36;101841.50;5051757;28;20520;-83
2023/06/07 00:46:20;;;;;;;14.45;7.82;;;;;;;13.13;73.08;101837.03;5062627;28;20035;-83
2023/06/07 00:48:46;;;;;;;12.35;7.82;;;;;;;13.05;73.00;101837.97;5050548;28;20032;-81
2023/06/07 00:51:11;;;;;;;14.50;7.82;;;;;;;13.04;72.86;101836.31;5051597;28;20033;-82
2023/06/07 00:53:37;;;;;;;19.30;8.05;;;;;;;12.94;73.17;101833.03;5052018;28;20108;-82
2023/06/07 00:56:02;;;;;;;10.50;7.68;;;;;;;12.94;72.89;101835.75;5015927;28;20086;-82
2023/06/07 00:58:28;;;;;;;14.50;7.97;;;;;;;12.92;73.01;101837.78;5051449;28;20052;-81
2023/06/07 01:00:53;;;;;;;16.90;7.78;;;;;;;12.89;73.30;101841.72;5051990;28;20025;-82
2023/06/07 01:03:18;;;;;;;12.38;7.82;;;;;;;12.86;72.85;101836.69;5033108;28;20047;-82
2023/06/07 01:05:44;;;;;;;14.13;7.97;;;;;;;12.83;73.45;101837.06;5051380;28;20033;-83
2023/06/07 01:08:09;;;;;;;12.88;7.72;;;;;;;12.83;73.81;101826.25;5052439;28;20020;-83
2023/06/07 01:10:35;;;;;;;14.38;8.02;;;;;;;12.82;73.49;101830.81;5032612;28;20033;-82
2023/06/07 01:13:03;;;;;;;13.63;7.70;;;;;;;12.74;73.35;101828.22;5050827;28;20036;-82
2023/06/07 01:15:29;;;;;;;11.23;7.88;;;;;;;12.69;73.42;101838.75;5050512;28;20033;-82
2023/06/07 01:17:57;;;;;;;15.05;7.75;;;;;;;12.58;73.74;101840.88;5033101;28;20082;-83
2023/06/07 01:20:24;;;;;;;12.95;7.63;;;;;;;12.50;74.45;101832.03;5050928;28;20043;-83
2023/06/07 01:22:51;;;;;;;14.93;8.32;;;;;;;12.50;73.87;101834.72;5054325;28;20048;-83
2023/06/07 01:25:16;;;;;;;15.60;8.55;;;;;;;12.47;74.88;101840.50;5033021;28;20025;-83
2023/06/07 01:27:44;;;;;;;15.63;8.45;;;;;;;12.44;73.85;101836.31;5050288;28;20032;-83
2023/06/07 01:30:10;;;;;;;12.73;8.20;;;;;;;12.40;74.29;101835.00;5033608;28;20024;-83
2023/06/07 01:32:35;;;;;;;12.02;7.78;;;;;;;12.43;73.98;101832.78;5050787;28;20052;-84
2023/06/07 01:35:04;;;;;;;13.90;7.78;;;;;;;12.37;74.06;101830.81;5032016;28;20545;-83
2023/06/07 01:37:29;;;;;;;13.48;7.40;;;;;;;12.30;74.32;101829.88;5017247;28;20033;-83
2023/06/07 01:39:54;;;;;;;13.50;7.68;;;;;;;12.30;74.40;101829.03;5032738;28;20661;-82
2023/06/07 01:42:20;;;;;;;13.68;7.90;;;;;;;12.30;74.40;101831.75;5015539;28;20036;-82
2023/06/07 01:44:46;;;;;;;14.98;7.95;;;;;;;12.24;73.88;101827.94;5031481;28;20029;-83
2023/06/07 01:47:12;;;;;;;13.30;7.70;;;;;;;12.20;74.70;101829.31;5034059;28;20029;-83
2023/06/07 01:49:38;;;;;;;14.55;7.80;;;;;;;12.17;74.56;101825.13;5050707;28;20430;-83
2023/06/07 01:52:04;;;;;;;13.75;7.55;;;;;;;12.12;74.46;101822.94;5049565;28;20044;-83
2023/06/07 01:54:29;;;;;;;13.82;7.65;;;;;;;12.06;74.67;101821.00;5051641;28;20021;-83
2023/06/07 01:57:15;;;;;;;14.15;7.97;;;;;;;12.09;74.73;101822.50;5035133;23;20061;-83
2023/06/07 02:00:09;;;;;;;10.95;7.22;;;;;;;12.04;74.37;101831.16;5028003;28;20473;-83
2023/06/07 02:02:38;;;;;;;11.82;7.38;;;;;;;12.04;74.68;101822.19;5025845;28;20041;-83
2023/06/07 02:05:06;;;;;;;13.65;8.00;;;;;;;12.01;74.72;101827.94;5029368;28;20056;-82
2023/06/07 02:07:36;;;;;;;13.77;7.95;;;;;;;11.95;74.88;101830.34;5028176;28;20478;-82
2023/06/07 02:10:02;;;;;;;11.15;6.82;;;;;;;11.91;75.19;101826.31;5026853;28;20084;-82
2023/06/07 02:12:28;;;;;;;18.65;7.82;;;;;;;11.86;75.67;101828.72;5028928;28;20060;-83
2023/06/07 02:14:54;;;;;;;13.32;7.60;;;;;;;11.85;75.00;101827.03;5030619;28;20358;-82
2023/06/07 02:17:19;;;;;;;14.55;7.68;;;;;;;11.85;75.10;101835.13;5031211;28;20102;-83
2023/06/07 02:19:45;;;;;;;15.27;7.80;;;;;;;11.82;75.16;101838.22;5030386;28;20031;-82
2023/06/07 02:22:12;;;;;;;11.30;7.32;;;;;;;11.82;75.12;101846.31;5031727;28;20029;-82
2023/06/07 02:24:38;;;;;;;14.82;8.43;;;;;;;11.77;75.15;101840.63;5030528;28;20491;-83
2023/06/07 02:27:04;;;;;;;15.65;7.85;;;;;;;11.76;75.03;101841.63;5027187;28;20052;-82
2023/06/07 02:29:32;;;;;;;13.52;7.13;;;;;;;11.69;75.54;101836.13;5031570;28;20025;-84
2023/06/07 02:32:00;;;;;;;16.65;7.90;;;;;;;11.63;75.50;101839.53;5031283;28;20083;-83
2023/06/07 02:34:26;;;;;;;13.63;7.53;;;;;;;11.60;75.69;101837.19;5030001;28;20042;-83
2023/06/07 02:36:52;;;;;;;18.92;7.35;;;;;;;11.61;75.57;101837.03;5028060;28;20477;-83
2023/06/07 02:39:17;;;;;;;12.68;7.68;;;;;;;11.54;75.96;101830.66;5031873;28;20106;-83
2023/06/07 02:41:42;;;;;;;12.52;7.60;;;;;;;11.53;75.56;101835.22;5035197;28;20029;-83
2023/06/07 02:44:08;;;;;;;11.65;7.25;;;;;;;11.50;76.11;101830.19;5032053;28;20030;-83
2023/06/07 02:46:33;;;;;;;15.10;7.07;;;;;;;11.51;76.08;101825.63;5032259;28;20032;-83
2023/06/07 02:48:59;;;;;;;15.18;7.63;;;;;;;11.54;75.88;101830.66;5036233;28;20037;-83
2023/06/07 02:51:25;;;;;;;12.98;7.10;;;;;;;11.54;75.88;101838.75;5035505;28;20037;-83
2023/06/07 02:53:50;;;;;;;14.13;7.50;;;;;;;11.53;75.58;101842.47;5035056;28;20021;-83
2023/06/07 02:56:16;;;;;;;12.30;6.85;;;;;;;11.53;75.97;101840.63;5041065;28;20573;-83
2023/06/07 02:58:41;;;;;;;13.27;7.45;;;;;;;11.53;75.58;101839.75;5054434;28;20039;-83
2023/06/07 03:01:07;;;;;;;12.73;7.18;;;;;;;11.52;75.57;101840.78;5054526;28;20107;-83
2023/06/07 03:03:39;;;;;;;13.23;6.93;;;;;;;11.55;75.63;101836.91;5052326;28;20094;-83
2023/06/07 03:06:07;;;;;;;14.30;7.78;;;;;;;11.51;75.73;101839.94;5053921;28;20179;-83
2023/06/07 03:08:32;;;;;;;14.82;7.45;;;;;;;11.51;75.85;101841.78;5054817;28;20037;-83
2023/06/07 03:10:58;;;;;;;11.48;7.20;;;;;;;11.48;76.00;101842.16;5051804;28;20797;-83
2023/06/07 03:13:24;;;;;;;14.55;7.00;;;;;;;11.49;75.98;101838.44;5053536;28;20031;-84
2023/06/07 03:15:49;;;;;;;13.90;6.93;;;;;;;11.45;76.01;101847.91;5053156;28;20040;-83
2023/06/07 03:18:15;;;;;;;13.85;7.80;;;;;;;11.46;75.85;101836.94;5054183;28;20028;-83
2023/06/07 03:20:41;;;;;;;11.90;7.03;;;;;;;11.47;76.04;101835.94;5054097;28;20033;-83
2023/06/07 03:23:06;;;;;;;14.43;7.68;;;;;;;11.46;76.21;101836.13;5053807;28;20024;-83
2023/06/07 03:25:32;;;;;;;14.00;7.50;;;;;;;11.41;76.38;101843.91;5052918;28;20021;-83
2023/06/07 03:27:57;;;;;;;14.95;7.53;;;;;;;11.39;76.25;101844.06;5052704;28;20029;-83
2023/06/07 03:30:23;;;;;;;16.13;7.43;;;;;;;11.37;76.42;101841.53;5052758;28;20021;-83
2023/06/07 03:32:48;;;;;;;11.90;7.10;;;;;;;11.30;76.34;101845.97;5052824;28;20100;-83
2023/06/07 03:35:14;;;;;;;12.90;7.65;;;;;;;11.32;76.23;101854.72;5050500;28;20029;-83
2023/06/07 03:37:39;;;;;;;13.95;7.45;;;;;;;11.29;76.62;101851.53;5053086;28;20029;-83
2023/06/07 03:40:05;;;;;;;13.90;7.38;;;;;;;11.28;76.50;101848.03;5051395;28;20048;-83
2023/06/07 03:42:31;;;;;;;14.23;7.57;;;;;;;11.28;76.63;101848.03;5053142;28;20033;-83
2023/06/07 03:44:56;;;;;;;15.05;7.38;;;;;;;11.28;76.51;101844.47;5053606;28;20025;-83
2023/06/07 03:47:21;;;;;;;11.68;6.97;;;;;;;11.30;76.43;101850.53;5053009;28;20021;-83
2023/06/07 03:49:47;;;;;;;12.63;6.88;;;;;;;11.31;76.33;101850.34;5042989;28;20063;-83
2023/06/07 03:52:12;;;;;;;16.08;7.35;;;;;;;11.26;76.78;101847.34;5053483;28;20017;-83
2023/06/07 03:54:38;;;;;;;15.98;8.23;;;;;;;11.25;77.03;101842.97;5052163;28;20421;-83
2023/06/07 03:57:03;;;;;;;12.75;7.13;;;;;;;11.29;77.23;101848.84;5051772;28;20044;-83
2023/06/07 03:59:29;;;;;;;13.88;7.00;;;;;;;11.29;76.63;101849.69;5052203;28;20025;-82
2023/06/07 04:01:57;;;;;;;14.18;7.28;;;;;;;11.30;76.54;101851.34;5052849;28;20524;-83
2023/06/07 04:04:27;;;;;;;15.20;7.20;;;;;;;11.32;76.41;101849.31;5052719;28;20033;-83
2023/06/07 04:06:52;;;;;;;12.23;7.50;;;;;;;11.37;76.69;101856.91;5048761;28;20032;-83
2023/06/07 04:09:19;;;;;;;16.25;7.97;;;;;;;11.44;76.99;101852.47;5052198;28;20106;-80
2023/06/07 04:11:45;;;;;;;15.93;6.80;;;;;;;11.51;76.02;101849.88;5048302;28;20041;-80
2023/06/07 04:14:10;;;;;;;10.73;7.22;;;;;;;11.50;76.02;101859.84;5032953;28;20396;-82
2023/06/07 04:16:35;;;;;;;13.88;7.25;;;;;;;11.59;75.63;101859.78;5049885;28;20039;-82
2023/06/07 04:19:01;;;;;;;13.35;7.28;;;;;;;11.64;75.46;101852.00;5052581;28;20492;-81
2023/06/07 04:21:26;;;;;;;14.60;7.22;;;;;;;11.64;75.53;101852.84;5052148;28;20029;-80
2023/06/07 04:23:52;;;;;;;14.55;7.70;;;;;;;11.66;75.33;101849.97;5048692;28;20021;-80
2023/06/07 04:26:21;;;;;;;12.85;7.18;;;;;;;11.70;75.03;101843.19;5048856;28;20028;-80
2023/06/07 04:28:49;;;;;;;13.23;7.15;;;;;;;11.78;75.01;101847.69;5052046;28;20036;-82
2023/06/07 04:31:15;;;;;;;13.18;7.20;;;;;;;11.78;74.72;101847.69;5050690;28;20416;-81
2023/06/07 04:33:41;;;;;;;12.77;8.10;;;;;;;11.71;75.33;101844.03;5016513;28;20032;-80
2023/06/07 04:36:18;;;;;;;14.68;7.07;;;;;;;11.82;75.19;101849.00;5051692;28;20028;-81
2023/06/07 04:38:46;;;;;;;14.15;7.53;;;;;;;11.78;75.03;101845.81;5041625;28;20524;-81
2023/06/07 04:41:13;;;;;;;15.93;7.47;;;;;;;11.84;74.58;101849.66;5050697;28;20495;-80
2023/06/07 04:43:39;;;;;;;17.27;8.40;;;;;;;11.86;74.88;101855.69;5050969;28;20053;-80
2023/06/07 04:46:04;;;;;;;14.25;7.80;;;;;;;11.86;74.78;101846.78;5050697;28;20031;-80
2023/06/07 04:48:31;;;;;;;14.43;7.55;;;;;;;11.95;73.94;101849.22;5050624;28;20086;-81
2023/06/07 04:51:03;;;;;;;14.82;7.63;;;;;;;12.10;74.21;101856.56;5051097;28;20049;-80
2023/06/07 04:53:34;;;;;;;13.77;7.07;;;;;;;12.20;73.40;101859.00;5034495;28;20037;-80
2023/06/07 04:55:59;;;;;;;12.63;7.15;;;;;;;12.26;73.15;101856.41;5050020;28;20102;-80
2023/06/07 04:58:25;;;;;;;17.10;7.40;;;;;;;12.37;72.69;101856.97;5050067;28;20037;-80
2023/06/07 05:00:51;;;;;;;12.45;7.35;;;;;;;12.35;72.29;101850.94;5050066;28;20025;-80
2023/06/07 05:03:21;;;;;;;13.80;7.38;;;;;;;12.14;72.55;101852.47;5048989;28;20028;-80
2023/06/07 05:05:47;;;;;;;14.80;7.38;;;;;;;12.14;72.94;101865.97;5051058;28;20055;-80
2023/06/07 05:08:16;;;;;;;13.90;7.65;;;;;;;12.19;73.20;101855.44;5034866;28;20043;-80
2023/06/07 05:10:43;;;;;;;16.73;7.38;;;;;;;12.11;72.95;101845.56;5047031;28;20479;-80
2023/06/07 05:13:08;;;;;;;16.20;7.72;;;;;;;12.25;73.06;101851.19;5051114;28;20032;-80
2023/06/07 05:15:34;;;;;;;13.20;7.15;;;;;;;12.33;72.40;101852.97;5050813;28;20040;-80
2023/06/07 05:17:59;;;;;;;10.95;6.05;;;;;;;12.56;72.23;101859.13;5051816;28;20028;-78
2023/06/07 05:20:25;;;;;;;13.82;7.82;;;;;;;12.66;71.23;101856.16;5051817;28;20247;-79
2023/06/07 05:22:50;;;;;;;12.77;6.60;;;;;;;12.57;71.54;101851.88;5043129;23;20513;-79
2023/06/07 05:25:16;;;;;;;12.27;6.90;;;;;;;12.79;71.17;101863.63;5030467;28;20047;-79
2023/06/07 05:27:41;;;;;;;14.77;7.15;;;;;;;12.98;70.08;101858.66;5031752;28;20028;-79
2023/06/07 05:30:07;;;;;;;13.40;6.82;;;;;;;13.28;69.06;101864.88;5031096;28;20036;-80
2023/06/07 05:32:33;;;;;;;15.07;6.93;;;;;;;13.42;68.69;101860.47;5031409;28;20040;-79
2023/06/07 05:34:59;;;;;;;16.27;7.18;;;;;;;13.56;68.03;101869.56;5031332;28;20022;-79
2023/06/07 05:37:25;;;;;;;18.05;6.78;;;;;;;13.55;67.75;101876.00;5030348;28;20106;-79
2023/06/07 05:39:51;;;;;;;15.30;7.00;;;;;;;14.09;66.54;101874.66;5030256;28;20035;-79
2023/06/07 05:42:16;;;;;;;17.13;7.20;;;;;;;14.34;65.23;101876.09;5031599;28;20083;-79
2023/06/07 05:44:44;;;;;;;16.13;6.60;;;;;;;14.57;64.45;101873.13;5031013;28;20056;-79
2023/06/07 05:47:10;;;;;;;15.77;7.32;;;;;;;14.34;65.42;101868.81;5030806;28;20552;-79
2023/06/07 05:49:35;;;;;;;13.93;6.82;;;;;;;14.50;65.05;101877.66;5029427;28;20021;-79
2023/06/07 05:52:00;;;;;;;17.33;7.13;;;;;;;14.65;64.70;101870.25;5030585;28;20486;-80
2023/06/07 05:54:26;;;;;;;15.90;6.90;;;;;;;14.42;64.66;101885.94;5027959;28;20029;-79
2023/06/07 05:56:51;;;;;;;14.70;7.10;;;;;;;14.33;65.38;101887.97;5028912;28;20052;-79
2023/06/07 05:59:17;;;;;;;11.85;6.90;;;;;;;14.53;64.97;101872.69;5024749;28;20029;-79
2023/06/07 06:01:44;;;;;;;13.38;7.22;;;;;;;14.49;64.86;101881.41;5030682;28;20030;-79
2023/06/07 06:04:12;;;;;;;12.13;6.50;;;;;;;14.39;64.51;101877.19;5029416;28;20041;-79
2023/06/07 06:06:38;;;;;;;11.55;6.40;;;;;;;14.36;64.78;101882.16;5031082;28;20531;-79
2023/06/07 06:09:04;;;;;;;12.35;6.50;;;;;;;14.46;64.92;101881.81;5029903;28;20030;-79
2023/06/07 06:11:29;;;;;;;13.73;7.25;;;;;;;14.68;64.82;101878.03;5028514;28;20025;-80
2023/06/07 06:13:55;;;;;;;15.80;7.65;;;;;;;14.85;63.80;101881.25;5028857;28;20029;-79
2023/06/07 06:16:21;;;;;;;15.02;7.05;;;;;;;14.92;63.46;101892.13;5028641;28;20392;-79
2023/06/07 06:18:47;;;;;;;13.15;7.30;;;;;;;14.98;63.48;101891.34;5027993;28;20409;-80
2023/06/07 06:21:12;;;;;;;12.38;7.25;;;;;;;15.00;63.26;101896.56;5030885;28;20075;-80
2023/06/07 06:23:38;;;;;;;16.02;7.45;;;;;;;14.66;63.88;101890.91;5029415;28;20056;-79
2023/06/07 06:26:04;;;;;;;16.75;7.65;;;;;;;14.62;64.24;101892.34;5032883;28;20465;-78
2023/06/07 06:28:29;;;;;;;15.82;7.70;;;;;;;14.68;64.16;101893.47;5032602;28;20038;-78
2023/06/07 06:30:55;;;;;;;15.73;6.55;;;;;;;14.68;64.29;101888.84;5030278;28;20029;-79
2023/06/07 06:33:20;;;;;;;14.02;7.18;;;;;;;14.79;63.54;101895.59;5033669;28;20025;-83
2023/06/07 06:35:47;;;;;;;11.57;7.25;;;;;;;14.67;63.89;101889.03;5034275;28;20040;-78
2023/06/07 06:38:12;;;;;;;14.50;6.85;;;;;;;14.88;63.98;101898.16;5033356;28;20025;-77
2023/06/07 06:40:38;;;;;;;22.35;7.75;;;;;;;15.05;63.23;101893.22;5029202;28;20125;-78
2023/06/07 06:43:03;;;;;;;16.10;7.65;;;;;;;15.05;62.02;101885.94;5034651;28;20025;-78
2023/06/07 06:45:28;;;;;;;13.95;6.90;;;;;;;15.14;62.77;101901.00;5030259;28;20745;-80
2023/06/07 06:47:58;;;;;;;14.05;7.35;;;;;;;15.42;62.10;101907.38;5030507;28;20044;-79
2023/06/07 06:50:25;;;;;;;14.10;6.97;;;;;;;15.73;60.96;101897.84;5047720;23;20048;-80
2023/06/07 06:52:50;;;;;;;12.30;6.63;;;;;;;15.83;61.10;101909.16;5054431;28;20381;-80
2023/06/07 06:55:16;;;;;;;17.27;7.15;;;;;;;16.21;59.53;101895.00;5049510;28;20040;-79
2023/06/07 06:57:42;;;;;;;13.88;6.90;;;;;;;16.32;58.62;101904.41;5037690;28;20086;-80
2023/06/07 07:00:09;;;;;;;15.18;6.68;;;;;;;16.47;58.12;101909.63;5052229;28;20139;-79
2023/06/07 07:02:35;;;;;;;12.85;6.22;;;;;;;16.63;58.21;101907.50;5050797;28;20044;-79
2023/06/07 07:05:01;;;;;;;14.52;6.50;;;;;;;17.33;56.60;101906.91;5040983;28;20041;-79
2023/06/07 07:07:27;;;;;;;14.48;6.65;;;;;;;17.92;54.76;101912.22;5053792;28;20036;-79
2023/06/07 07:09:53;;;;;;;13.50;6.45;;;;;;;18.16;53.59;101917.97;5052388;28;20037;-79
2023/06/07 07:12:21;;;;;;;14.20;6.03;;;;;;;18.08;53.26;101910.03;5054131;28;20154;-79
2023/06/07 07:14:46;;;;;;;15.85;6.53;;;;;;;17.87;53.79;101917.50;5053919;28;20473;-79
2023/06/07 07:17:12;;;;;;;13.80;6.38;;;;;;;17.82;54.11;101920.88;5053242;28;20028;-78
2023/06/07 07:19:37;;;;;;;15.80;6.82;;;;;;;17.90;53.62;101925.22;5056087;28;20036;-79
2023/06/07 07:22:03;;;;;;;16.60;6.97;;;;;;;17.93;53.35;101932.13;5053552;28;20013;-79
2023/06/07 07:24:28;;;;;;;14.20;6.47;;;;;;;18.24;52.63;101934.03;5053514;28;20033;-79
2023/06/07 07:26:53;;;;;;;14.05;6.28;;;;;;;18.64;51.73;101935.56;5054191;28;20029;-79
2023/06/07 07:29:19;;;;;;;12.45;6.30;;;;;;;19.84;49.49;101938.75;5035507;28;20025;-79
2023/06/07 07:31:45;;;;;;;15.52;6.97;;;;;;;20.94;46.68;101948.56;5054072;28;20033;-79
2023/06/07 07:34:10;;;;;;;12.52;5.95;;;;;;;21.19;45.55;101944.69;5062635;28;20484;-79
2023/06/07 07:36:36;;;;;;;12.18;6.30;;;;;;;19.99;46.64;101945.72;5051362;28;20029;-79
2023/06/07 07:39:04;;;;;;;15.25;6.72;;;;;;;19.48;48.35;101954.19;5042185;28;20060;-79
2023/06/07 07:41:31;;;;;;;14.38;6.97;;;;;;;18.96;49.21;101951.88;5073703;28;20021;-79
2023/06/07 07:43:56;;;;;;;13.40;6.47;;;;;;;18.34;50.65;101944.44;5073205;28;20020;-79
2023/06/07 07:46:22;;;;;;;14.27;7.03;;;;;;;18.12;51.52;101952.16;5073026;28;20031;-79
2023/06/07 07:48:47;;;;;;;12.25;6.28;;;;;;;18.15;51.86;101954.44;5073382;28;20036;-79
2023/06/07 07:51:13;;;;;;;12.73;6.50;;;;;;;18.28;51.57;101950.75;5057147;28;20473;-79
2023/06/07 07:53:39;;;;;;;15.10;6.47;;;;;;;18.31;51.49;101962.06;5052713;28;20087;-79
2023/06/07 07:56:05;;;;;;;15.88;6.43;;;;;;;18.78;50.29;101960.81;5035232;28;20095;-79
2023/06/07 07:58:30;;;;;;;15.38;6.45;;;;;;;19.54;47.86;101958.72;5053098;28;20536;-79
2023/06/07 08:00:56;;;;;;;15.77;6.70;;;;;;;19.42;48.02;101957.81;5051490;28;20028;-79
2023/06/07 08:03:21;;;;;;;12.70;6.53;;;;;;;19.33;48.44;101956.47;5051978;28;20116;-79
2023/06/07 08:05:46;;;;;;;13.80;6.20;;;;;;;19.50;48.74;101957.50;5052324;28;20465;-77
2023/06/07 08:08:12;;;;;;;12.05;6.45;;;;;;;19.14;49.66;101963.84;5050917;28;20052;-79
2023/06/07 08:10:37;;;;;;;12.73;6.35;;;;;;;19.24;49.51;101956.78;5052075;28;20028;-78
2023/06/07 08:13:03;;;;;;;15.80;7.13;;;;;;;19.15;50.62;101958.16;5056119;28;20107;-78
2023/06/07 08:15:29;;;;;;;13.15;7.43;;;;;;;18.93;50.28;101958.56;5051721;28;20052;-79
2023/06/07 08:17:54;;;;;;;12.88;7.57;;;;;;;18.83;50.63;101952.81;5064594;28;20029;-79
2023/06/07 08:20:20;;;;;;;13.90;7.15;;;;;;;18.91;50.30;101955.22;5051811;28;20215;-78
2023/06/07 08:22:50;;;;;;;13.15;6.90;;;;;;;19.14;49.83;101955.66;5051634;28;20024;-79
2023/06/07 08:25:15;;;;;;;16.85;7.25;;;;;;;19.15;50.22;101946.41;5050906;28;20025;-79
2023/06/07 08:27:41;;;;;;;13.43;7.65;;;;;;;19.14;50.24;101948.28;5050918;28;20044;-79
2023/06/07 08:30:07;;;;;;;13.70;6.78;;;;;;;19.17;52.66;101934.19;5046088;28;20062;-78
2023/06/07 08:32:32;;;;;;;17.85;8.18;;;;;;;18.99;55.43;101934.19;5047128;28;20060;-79
2023/06/07 08:34:58;;;;;;;13.82;7.60;;;;;;;18.91;56.14;101930.66;5050095;28;20017;-80
2023/06/07 08:37:23;;;;;;;15.13;8.00;;;;;;;18.59;57.58;101929.97;5049144;28;20039;-79
2023/06/07 08:39:48;;;;;;;15.18;8.18;;;;;;;18.12;58.01;101930.34;5048800;28;20037;-79
2023/06/07 08:42:14;;;;;;;17.67;8.25;;;;;;;17.94;59.27;101923.75;5051920;28;20032;-79
2023/06/07 08:44:40;;;;;;;18.50;8.38;;;;;;;17.72;60.02;101923.25;5015003;28;20035;-78
2023/06/07 08:47:06;;;;;;;14.57;8.40;;;;;;;17.55;61.92;101931.09;5029032;28;20025;-79
2023/06/07 08:49:33;;;;;;;14.43;8.05;;;;;;;17.62;60.45;101912.00;5029708;28;20029;-79
2023/06/07 08:51:59;;;;;;;17.55;8.35;;;;;;;17.84;59.40;101907.03;5050162;28;20033;-79
2023/06/07 08:54:25;;;;;;;15.32;8.20;;;;;;;17.99;59.25;101914.94;5013901;28;20110;-79
2023/06/07 08:56:51;;;;;;;13.52;7.78;;;;;;;17.72;58.22;101926.00;5033639;28;20102;-79
2023/06/07 08:59:18;;;;;;;11.70;7.72;;;;;;;17.75;60.68;101930.16;5033678;28;20025;-78
2023/06/07 09:01:43;;;;;;;19.08;8.55;;;;;;;17.97;57.65;101919.72;5048586;28;20112;-79
2023/06/07 09:04:08;;;;;;;15.65;8.65;;;;;;;18.14;57.96;101925.53;5032570;28;20031;-79
2023/06/07 09:06:35;;;;;;;17.17;8.75;;;;;;;18.26;56.66;101931.91;5014233;28;20138;-79
2023/06/07 09:09:02;;;;;;;15.07;8.13;;;;;;;18.41;56.76;101933.47;5049676;28;20039;-80
2023/06/07 09:11:28;;;;;;;14.00;7.97;;;;;;;18.67;56.77;101940.56;5033789;28;20024;-79
2023/06/07 09:13:59;;;;;;;14.25;7.78;;;;;;;18.78;54.03;101928.09;5049633;28;20046;-81
2023/06/07 09:16:25;;;;;;;14.10;7.97;;;;;;;18.43;55.01;101936.81;5046911;28;20422;-82
2023/06/07 09:18:53;;;;;;;13.63;7.68;;;;;;;18.68;55.47;101942.25;5050310;28;20431;-82
2023/06/07 09:21:28;;;;;;;16.38;7.95;;;;;;;18.56;55.69;101925.78;5050477;28;20033;-81
2023/06/07 09:23:56;;;;;;;12.27;8.13;;;;;;;18.70;51.83;101931.13;5050681;28;20025;-82
2023/06/07 09:26:22;;;;;;;13.90;7.55;;;;;;;18.94;54.52;101934.84;5052501;28;20703;-80
2023/06/07 09:28:48;;;;;;;15.98;8.45;;;;;;;18.86;52.66;101935.13;5048929;28;20250;-79
2023/06/07 09:31:26;;;;;;;14.30;8.27;;;;;;;18.75;53.27;101939.44;5028608;28;20056;-79
2023/06/07 09:33:51;;;;;;;14.65;8.35;;;;;;;18.89;51.80;101938.25;5033708;28;20484;-79
2023/06/07 09:36:17;;;;;;;15.60;8.30;;;;;;;18.81;54.88;101938.56;5049137;28;20017;-79
2023/06/07 09:38:42;;;;;;;13.13;8.68;;;;;;;19.03;51.25;101922.59;5048422;28;20396;-79
2023/06/07 09:41:09;;;;;;;16.73;8.77;;;;;;;18.60;53.00;101937.09;5050949;28;20033;-79
2023/06/07 09:43:47;;;;;;;15.73;7.45;;;;;;;18.80;53.71;101945.06;5048202;28;20021;-78
2023/06/07 09:46:19;;;;;;;14.32;8.70;;;;;;;19.04;51.79;101931.63;5050120;28;20442;-78
2023/06/07 09:48:45;;;;;;;16.45;8.25;;;;;;;19.19;51.75;101926.63;5033036;28;20017;-79
2023/06/07 09:51:11;;;;;;;14.63;8.40;;;;;;;19.40;51.36;101929.94;5048411;28;20480;-78
2023/06/07 09:53:56;;;;;;;14.35;8.73;;;;;;;19.01;51.33;101926.63;5049450;28;20032;-78
2023/06/07 09:56:22;;;;;;;18.83;8.55;;;;;;;18.89;52.82;101927.31;5049616;28;20392;-79
2023/06/07 09:59:08;;;;;;;15.13;8.55;;;;;;;19.19;52.04;101934.81;5049561;28;20036;-79
2023/06/07 10:01:45;;;;;;;18.25;8.77;;;;;;;19.37;51.28;101928.47;5038120;28;20453;-79
2023/06/07 10:04:11;;;;;;;15.77;9.30;;;;;;;19.30;51.46;101935.09;5053301;28;20029;-79
2023/06/07 10:06:38;;;;;;;13.93;8.88;;;;;;;19.22;51.87;101941.69;5054327;28;20051;-78
2023/06/07 10:09:05;;;;;;;14.20;8.80;;;;;;;19.53;50.66;101937.09;5036197;28;20029;-78
2023/06/07 10:11:32;;;;;;;14.98;8.25;;;;;;;19.94;49.30;101937.41;5053980;28;20020;-79
2023/06/07 10:13:59;;;;;;;13.57;8.38;;;;;;;19.93;49.08;101933.84;5051428;28;20148;-79
2023/06/07 10:16:25;;;;;;;15.32;8.00;;;;;;;20.27;48.60;101934.13;5039885;28;20030;-79
2023/06/07 10:18:51;;;;;;;13.57;8.27;;;;;;;20.44;48.35;101928.81;5034271;28;20036;-79
2023/06/07 10:21:18;;;;;;;15.95;8.05;;;;;;;20.62;48.09;101928.91;5034431;28;20025;-79
2023/06/07 10:23:48;;;;;;;15.02;8.73;;;;;;;20.78;47.82;101927.41;5035539;28;20025;-79
2023/06/07 10:26:25;;;;;;;13.60;8.27;;;;;;;20.52;47.31;101924.88;5036014;28;20310;-79
2023/06/07 10:28:53;;;;;;;14.38;8.35;;;;;;;20.79;47.05;101923.59;5016688;28;20021;-78
2023/06/07 10:31:18;;;;;;;13.35;7.63;;;;;;;20.89;46.67;101930.13;5017686;28;22014;-78
2023/06/07 10:33:43;;;;;;;16.83;9.20;;;;;;;20.52;47.65;101929.50;5015134;28;20044;-78
2023/06/07 10:36:10;;;;;;;13.55;9.05;;;;;;;20.51;48.14;101925.09;5016976;28;20017;-77
2023/06/07 10:38:35;;;;;;;18.08;9.00;;;;;;;20.69;46.97;101916.78;5016978;28;20040;-78
2023/06/07 10:41:02;;;;;;;11.73;8.27;;;;;;;20.85;47.47;101915.25;5052387;28;20021;-78
2023/06/07 10:43:28;;;;;;;14.35;8.63;;;;;;;20.82;47.68;101917.66;5035073;28;20029;-78
2023/06/07 10:46:23;;;;;;;13.95;8.65;;;;;;;20.49;47.96;101919.03;5052080;28;20037;-78
2023/06/07 10:48:49;;;;;;;17.30;8.25;;;;;;;20.66;47.79;101914.50;5043567;28;20048;-78
2023/06/07 10:51:15;;;;;;;17.42;9.10;;;;;;;20.38;48.28;101918.00;5055291;28;20438;-78
2023/06/07 10:53:56;;;;;;;16.23;8.75;;;;;;;20.53;47.84;101912.03;5062553;28;20021;-78
2023/06/07 10:56:31;;;;;;;14.20;8.65;;;;;;;19.94;50.29;101916.38;5056237;28;20095;-79
2023/06/07 10:58:59;;;;;;;13.80;8.70;;;;;;;20.22;49.52;101914.03;5054246;28;20520;-80
2023/06/07 11:01:25;;;;;;;14.15;8.60;;;;;;;20.59;48.50;101903.69;5051531;28;20302;-78
2023/06/07 11:03:50;;;;;;;15.48;8.65;;;;;;;21.20;46.75;101903.38;5051878;28;20021;-79
2023/06/07 11:06:16;;;;;;;13.93;8.02;;;;;;;21.31;46.83;101903.56;5034117;28;20041;-79
2023/06/07 11:08:44;;;;;;;16.08;8.18;;;;;;;21.76;45.87;101910.19;5051729;28;20060;-79
2023/06/07 11:11:40;;;;;;;13.45;8.45;;;;;;;22.22;44.39;101910.16;5054278;28;20024;-78
2023/06/07 11:14:05;;;;;;;17.73;8.98;;;;;;;21.69;44.66;101906.81;5052556;28;20029;-78
2023/06/07 11:16:31;;;;;;;14.18;8.40;;;;;;;21.81;45.02;101900.16;5052933;28;20032;-79